Hunt Valley, Maryland
Current Conditions -  °F | °C
As of 7:05 AM on Thursday 29 Jan 2015 (Local Time) from KDMW Reporting Station
Scattered Clouds Scattered Clouds  
Wind Chill: 16°   Ceiling: Unl
Heat Index: 16°   Visibility: 10mi
Dew Point:   Wind: 0mph
Humidity: 68%   Direction: NA
Pressure: 30.28"   Gusts: NA
Location:  39.49°N, 76.66°W
Report Text: KDMW 291205Z AUTO 00000KT 10SM SCT090 M09/M14 A3028 RMK AO2
Loading
Personal Weather Stations






























Interactive Weather Map New forecast layout! Learn more

10-Day Weather Forecast

Advertisements
Track Severe Weather on mobile